createdAt,value
2023-03-31T00:00:59.938Z,23.91
2023-03-31T00:01:59.947Z,23.86
2023-03-31T00:03:00.046Z,23.86
2023-03-31T00:04:00.139Z,23.88
2023-03-31T00:05:00.193Z,23.88
2023-03-31T00:05:59.954Z,23.86
2023-03-31T00:06:59.920Z,23.86
2023-03-31T00:07:59.912Z,23.86
2023-03-31T00:08:59.913Z,23.88
2023-03-31T00:10:10.699Z,23.88
2023-03-31T00:11:00.925Z,23.88
2023-03-31T00:11:59.886Z,23.88
2023-03-31T00:12:59.877Z,23.86
2023-03-31T00:13:59.900Z,23.89
2023-03-31T00:14:59.889Z,23.86
2023-03-31T00:15:59.922Z,23.86
2023-03-31T00:16:59.930Z,23.86
2023-03-31T00:17:59.895Z,23.85
2023-03-31T00:18:59.872Z,23.85
2023-03-31T00:19:59.913Z,23.86
2023-03-31T00:21:01.931Z,23.82
2023-03-31T00:21:59.922Z,23.88
2023-03-31T00:22:59.893Z,23.85
2023-03-31T00:23:59.901Z,23.83
2023-03-31T00:24:59.867Z,23.85
2023-03-31T00:25:59.859Z,23.85
2023-03-31T00:26:59.865Z,23.85
2023-03-31T00:27:59.829Z,23.83
2023-03-31T00:28:59.823Z,23.83
2023-03-31T00:29:59.804Z,23.85
2023-03-31T00:30:59.782Z,23.85
2023-03-31T00:31:59.862Z,23.85
2023-03-31T00:32:59.784Z,23.83
2023-03-31T00:33:59.732Z,23.83
2023-03-31T00:34:59.722Z,23.82
2023-03-31T00:35:59.736Z,23.85
2023-03-31T00:36:59.679Z,23.83
2023-03-31T00:37:59.670Z,23.83
2023-03-31T00:38:59.666Z,23.82
2023-03-31T00:39:59.638Z,23.82
2023-03-31T00:40:59.627Z,23.86
2023-03-31T00:41:59.617Z,23.85
2023-03-31T00:42:59.601Z,23.83
2023-03-31T00:43:59.607Z,23.85
2023-03-31T00:44:59.587Z,23.82
2023-03-31T00:45:59.628Z,23.83
2023-03-31T00:46:59.558Z,23.81
2023-03-31T00:47:59.604Z,23.82
2023-03-31T00:48:59.514Z,23.81
2023-03-31T00:49:59.514Z,23.82
2023-03-31T00:50:59.577Z,23.79
2023-03-31T00:51:59.483Z,23.81
2023-03-31T00:52:59.466Z,23.82
2023-03-31T00:53:59.440Z,23.79
2023-03-31T00:54:59.423Z,23.82
2023-03-31T00:55:59.400Z,23.81
2023-03-31T00:56:59.426Z,23.83
2023-03-31T00:57:59.373Z,23.82
2023-03-31T00:58:59.350Z,23.83
2023-03-31T00:59:59.347Z,23.81
2023-03-31T01:00:59.350Z,23.81
2023-03-31T01:01:59.371Z,23.82
2023-03-31T01:02:59.341Z,23.81
2023-03-31T01:03:59.405Z,23.81
2023-03-31T01:04:59.346Z,23.81
2023-03-31T01:05:59.248Z,23.83
2023-03-31T01:06:59.223Z,23.82
2023-03-31T01:07:59.208Z,23.82
2023-03-31T01:08:59.189Z,23.81
2023-03-31T01:09:59.186Z,23.81
2023-03-31T01:10:59.165Z,23.83
2023-03-31T01:11:59.175Z,23.79
2023-03-31T01:12:59.142Z,23.81
2023-03-31T01:13:59.216Z,23.79
2023-03-31T01:14:59.117Z,23.79
2023-03-31T01:15:59.189Z,23.82
2023-03-31T01:16:59.150Z,23.79
2023-03-31T01:17:59.223Z,23.81
2023-03-31T01:18:59.033Z,23.79
2023-03-31T01:19:59.022Z,23.81
2023-03-31T01:20:58.992Z,23.81
2023-03-31T01:21:58.978Z,23.79
2023-03-31T01:22:58.963Z,23.79
2023-03-31T01:23:58.937Z,23.78
2023-03-31T01:24:58.934Z,23.79
2023-03-31T01:25:58.907Z,23.81
2023-03-31T01:26:58.900Z,23.81
2023-03-31T01:27:58.885Z,23.79
2023-03-31T01:28:58.886Z,23.79
2023-03-31T01:29:58.868Z,23.79
2023-03-31T01:30:58.864Z,23.79
2023-03-31T01:31:58.821Z,23.76
2023-03-31T01:32:58.814Z,23.78
2023-03-31T01:33:58.791Z,23.78
2023-03-31T01:34:58.782Z,23.78
2023-03-31T01:35:58.819Z,23.79
2023-03-31T01:36:58.764Z,23.78
2023-03-31T01:37:58.734Z,23.76
2023-03-31T01:38:58.723Z,23.78
2023-03-31T01:39:58.712Z,23.78
2023-03-31T01:40:58.699Z,23.76
2023-03-31T01:41:58.680Z,23.76
2023-03-31T01:42:58.669Z,23.76
2023-03-31T01:43:58.651Z,23.78
2023-03-31T01:44:58.648Z,23.78
2023-03-31T01:45:58.706Z,23.75
2023-03-31T01:46:58.614Z,23.78
2023-03-31T01:47:58.659Z,23.76
2023-03-31T01:48:58.567Z,23.78
2023-03-31T01:49:58.565Z,23.76
2023-03-31T01:50:58.549Z,23.75
2023-03-31T01:51:58.555Z,23.78
2023-03-31T01:52:58.514Z,23.78
2023-03-31T01:53:58.506Z,23.76
2023-03-31T01:54:59.004Z,23.78
2023-03-31T01:55:58.481Z,23.78
2023-03-31T01:56:58.523Z,23.76
2023-03-31T01:57:58.465Z,23.78
2023-03-31T01:58:58.447Z,23.78
2023-03-31T01:59:58.427Z,23.76
2023-03-31T02:00:58.455Z,23.75
2023-03-31T02:01:58.436Z,23.79
2023-03-31T02:02:58.590Z,23.76
2023-03-31T02:03:58.483Z,23.76
2023-03-31T02:04:58.381Z,23.78
2023-03-31T02:05:58.380Z,23.76
2023-03-31T02:06:58.359Z,23.76
2023-03-31T02:07:58.342Z,23.78
2023-03-31T02:08:58.335Z,23.79
2023-03-31T02:09:58.311Z,23.76
2023-03-31T02:10:58.302Z,23.76
2023-03-31T02:11:58.280Z,23.75
2023-03-31T02:12:58.278Z,23.76
2023-03-31T02:13:58.252Z,23.76
2023-03-31T02:14:58.265Z,23.75
2023-03-31T02:15:58.330Z,23.76
2023-03-31T02:16:58.362Z,23.76
2023-03-31T02:17:58.267Z,23.76
2023-03-31T02:18:58.200Z,23.76
2023-03-31T02:19:58.203Z,23.75
2023-03-31T02:20:58.181Z,23.75
2023-03-31T02:21:58.151Z,23.75
2023-03-31T02:22:58.154Z,23.75
2023-03-31T02:23:58.135Z,23.75
2023-03-31T02:24:58.122Z,23.75
2023-03-31T02:25:58.109Z,23.75
2023-03-31T02:26:58.098Z,23.74
2023-03-31T02:27:58.077Z,23.75
2023-03-31T02:28:58.070Z,23.74
2023-03-31T02:29:58.047Z,23.75
2023-03-31T02:30:58.038Z,23.76
2023-03-31T02:31:58.098Z,23.75
2023-03-31T02:32:58.054Z,23.75
2023-03-31T02:33:58.004Z,23.75
2023-03-31T02:34:57.989Z,23.74
2023-03-31T02:35:58.064Z,23.75
2023-03-31T02:36:57.958Z,23.75
2023-03-31T02:37:57.948Z,23.74
2023-03-31T02:38:57.933Z,23.76
2023-03-31T02:39:57.932Z,23.75
2023-03-31T02:40:57.907Z,23.74
2023-03-31T02:41:57.893Z,23.75
2023-03-31T02:42:57.882Z,23.74
2023-03-31T02:43:57.875Z,23.74
2023-03-31T02:44:57.867Z,23.78
2023-03-31T02:45:57.894Z,23.75
2023-03-31T02:46:57.837Z,23.74
2023-03-31T02:47:57.895Z,23.72
2023-03-31T02:48:57.813Z,23.72
2023-03-31T02:49:57.803Z,23.74
2023-03-31T02:50:57.789Z,23.74
2023-03-31T02:51:57.779Z,23.74
2023-03-31T02:52:57.767Z,23.74
2023-03-31T02:53:57.757Z,23.72
2023-03-31T02:54:57.748Z,23.74
2023-03-31T02:55:57.741Z,23.76
2023-03-31T02:56:57.756Z,23.75
2023-03-31T02:57:57.707Z,23.74
2023-03-31T02:58:57.721Z,23.72
2023-03-31T02:59:57.696Z,23.74
2023-03-31T03:00:57.725Z,23.76
2023-03-31T03:01:57.710Z,23.72
2023-03-31T03:02:57.752Z,23.74
2023-03-31T03:03:57.654Z,23.74
2023-03-31T03:04:57.635Z,23.76
2023-03-31T03:05:57.623Z,23.75
2023-03-31T03:06:57.602Z,23.76
2023-03-31T03:07:57.590Z,23.76
2023-03-31T03:08:57.574Z,23.78
2023-03-31T03:09:57.550Z,23.78
2023-03-31T03:10:57.536Z,23.79
2023-03-31T03:11:57.532Z,23.78
2023-03-31T03:12:57.509Z,23.78
2023-03-31T03:13:57.501Z,23.82
2023-03-31T03:14:57.492Z,23.81
2023-03-31T03:15:57.482Z,23.83
2023-03-31T03:16:57.637Z,23.83
2023-03-31T03:17:57.462Z,23.83
2023-03-31T03:18:57.449Z,23.83
2023-03-31T03:19:57.449Z,23.85
2023-03-31T03:20:57.445Z,23.85
2023-03-31T03:21:57.456Z,23.85
2023-03-31T03:22:57.438Z,23.88
2023-03-31T03:23:57.418Z,23.89
2023-03-31T03:24:57.402Z,23.91
2023-03-31T03:25:57.388Z,23.91
2023-03-31T03:26:57.374Z,23.88
2023-03-31T03:27:57.378Z,23.89
2023-03-31T03:28:57.347Z,23.91
2023-03-31T03:29:57.338Z,23.89
2023-03-31T03:30:57.370Z,23.93
2023-03-31T03:31:57.295Z,23.92
2023-03-31T03:32:57.331Z,23.95
2023-03-31T03:33:57.268Z,23.93
2023-03-31T03:34:57.266Z,23.95
2023-03-31T03:35:57.293Z,23.93
2023-03-31T03:36:57.232Z,23.95
2023-03-31T03:37:57.217Z,23.93
2023-03-31T03:38:57.223Z,23.96
2023-03-31T03:39:57.204Z,23.95
2023-03-31T03:40:57.217Z,23.95
2023-03-31T03:41:57.553Z,23.95
2023-03-31T03:42:57.262Z,23.96
2023-03-31T03:43:57.262Z,23.96
2023-03-31T03:44:57.267Z,23.98
2023-03-31T03:45:57.325Z,23.99
2023-03-31T03:46:57.301Z,23.96
2023-03-31T03:47:57.343Z,23.98
2023-03-31T03:48:57.324Z,23.98
2023-03-31T03:49:57.331Z,24.00
2023-03-31T03:50:57.320Z,23.98
2023-03-31T03:51:57.341Z,24.00
2023-03-31T03:52:57.354Z,24.02
2023-03-31T03:53:57.385Z,23.99
2023-03-31T03:54:57.398Z,24.00
2023-03-31T03:55:57.413Z,24.02
2023-03-31T03:56:57.486Z,24.02
2023-03-31T03:57:57.426Z,24.02
2023-03-31T03:58:57.449Z,24.03
2023-03-31T03:59:57.468Z,24.00
2023-03-31T04:00:57.487Z,24.02
2023-03-31T04:01:57.562Z,24.05
2023-03-31T04:02:57.604Z,24.00
2023-03-31T04:03:57.540Z,24.03
2023-03-31T04:04:57.591Z,24.03
2023-03-31T04:05:57.551Z,24.03
2023-03-31T04:06:57.560Z,24.05
2023-03-31T04:07:57.552Z,24.05
2023-03-31T04:08:57.585Z,24.03
2023-03-31T04:09:57.629Z,24.03
2023-03-31T04:10:57.657Z,24.05
2023-03-31T04:11:57.696Z,24.05
2023-03-31T04:12:57.714Z,24.06
2023-03-31T04:13:57.721Z,24.06
2023-03-31T04:14:57.734Z,24.03
2023-03-31T04:15:58.606Z,24.08
2023-03-31T04:16:57.782Z,24.06
2023-03-31T04:17:57.836Z,24.05
2023-03-31T04:18:57.790Z,24.06
2023-03-31T04:19:57.815Z,24.08
2023-03-31T04:20:57.857Z,24.08
2023-03-31T04:21:57.849Z,24.06
2023-03-31T04:22:57.858Z,24.08
2023-03-31T04:23:57.880Z,24.08
2023-03-31T04:24:58.060Z,24.06
2023-03-31T04:25:57.937Z,24.09
2023-03-31T04:26:57.983Z,24.10
2023-03-31T04:27:58.033Z,24.08
2023-03-31T04:28:58.042Z,24.08
2023-03-31T04:29:58.075Z,24.08
2023-03-31T04:30:58.114Z,24.08
2023-03-31T04:31:58.208Z,24.06
2023-03-31T04:32:58.209Z,24.09
2023-03-31T04:33:58.159Z,24.09
2023-03-31T04:34:58.194Z,24.06
2023-03-31T04:35:58.227Z,24.10
2023-03-31T04:36:58.236Z,24.06
2023-03-31T04:37:58.248Z,24.08
2023-03-31T04:38:58.306Z,24.08
2023-03-31T04:39:58.295Z,24.08
2023-03-31T04:40:58.475Z,24.09
2023-03-31T04:41:58.323Z,24.08
2023-03-31T04:42:58.338Z,24.10
2023-03-31T04:43:58.368Z,24.12
2023-03-31T04:44:58.344Z,24.09
2023-03-31T04:45:58.374Z,24.08
2023-03-31T04:46:58.398Z,24.10
2023-03-31T04:47:58.480Z,24.10
2023-03-31T04:48:58.468Z,24.10
2023-03-31T04:49:58.520Z,24.10
2023-03-31T04:50:58.514Z,24.12
2023-03-31T04:51:58.541Z,24.10
2023-03-31T04:52:58.548Z,24.10
2023-03-31T04:53:58.543Z,24.10
2023-03-31T04:54:58.568Z,24.10
2023-03-31T04:55:58.547Z,24.10
2023-03-31T04:56:58.619Z,24.12
2023-03-31T04:57:58.565Z,24.12
2023-03-31T04:58:58.598Z,24.13
2023-03-31T04:59:58.596Z,24.12
2023-03-31T05:00:58.625Z,24.12
2023-03-31T05:01:58.652Z,24.12
2023-03-31T05:02:58.768Z,24.12
2023-03-31T05:03:58.703Z,24.12
2023-03-31T05:04:58.710Z,24.13
2023-03-31T05:05:58.751Z,24.10
2023-03-31T05:06:58.795Z,24.12
2023-03-31T05:07:58.815Z,24.10
2023-03-31T05:08:58.848Z,24.12
2023-03-31T05:09:58.886Z,24.15
2023-03-31T05:10:58.908Z,24.15
2023-03-31T05:11:58.950Z,24.13
2023-03-31T05:12:58.977Z,24.12
2023-03-31T05:13:59.004Z,24.15
2023-03-31T05:14:59.043Z,24.13
2023-03-31T05:15:59.053Z,24.13
2023-03-31T05:16:59.166Z,24.15
2023-03-31T05:17:59.135Z,24.12
2023-03-31T05:18:59.101Z,24.13
2023-03-31T05:19:59.133Z,24.13
2023-03-31T05:20:59.175Z,24.12
2023-03-31T05:21:59.217Z,24.15
2023-03-31T05:22:59.229Z,24.16
2023-03-31T05:23:59.258Z,24.15
2023-03-31T05:24:59.250Z,24.15
2023-03-31T05:25:59.252Z,24.15
2023-03-31T05:26:59.282Z,24.12
2023-03-31T05:27:59.268Z,24.17
2023-03-31T05:28:59.231Z,24.17
2023-03-31T05:29:59.235Z,24.16
2023-03-31T05:30:59.274Z,24.17
2023-03-31T05:31:59.372Z,24.19
2023-03-31T05:32:59.428Z,24.21
2023-03-31T05:33:59.382Z,24.24
2023-03-31T05:34:59.409Z,24.24
2023-03-31T05:35:59.515Z,24.24
2023-03-31T05:36:59.492Z,24.23
2023-03-31T05:37:59.544Z,24.24
2023-03-31T05:38:59.600Z,24.24
2023-03-31T05:39:59.628Z,24.26
2023-03-31T05:40:59.626Z,24.26
2023-03-31T05:41:59.658Z,24.27
2023-03-31T05:42:59.718Z,24.27
2023-03-31T05:43:59.718Z,24.26
2023-03-31T05:44:59.741Z,24.26
2023-03-31T05:45:59.807Z,24.27
2023-03-31T05:46:59.775Z,24.30
2023-03-31T05:47:59.847Z,24.30
2023-03-31T05:49:00.546Z,24.30
2023-03-31T05:49:59.820Z,24.31
2023-03-31T05:50:59.861Z,24.33
2023-03-31T05:51:59.854Z,24.31
2023-03-31T05:52:59.865Z,24.34
2023-03-31T05:53:59.867Z,24.34
2023-03-31T05:54:59.877Z,24.33
2023-03-31T05:55:59.891Z,24.40
2023-03-31T05:56:59.966Z,24.40
2023-03-31T05:57:59.906Z,24.40
2023-03-31T05:58:59.954Z,24.38
2023-03-31T05:59:59.964Z,24.38
2023-03-31T06:01:00.086Z,24.43
2023-03-31T06:02:00.087Z,24.41
2023-03-31T06:03:00.253Z,24.43
2023-03-31T06:04:00.148Z,24.46
2023-03-31T06:05:00.154Z,24.47
2023-03-31T06:06:00.144Z,24.44
2023-03-31T06:07:00.169Z,24.47
2023-03-31T06:08:00.148Z,24.48
2023-03-31T06:09:00.145Z,24.47
2023-03-31T06:10:00.221Z,24.48
2023-03-31T06:11:00.152Z,24.50
2023-03-31T06:12:00.162Z,24.50
2023-03-31T06:13:00.178Z,24.48
2023-03-31T06:14:00.196Z,24.54
2023-03-31T06:15:00.189Z,24.57
2023-03-31T06:16:00.248Z,24.55
2023-03-31T06:17:00.207Z,24.57
2023-03-31T06:18:00.254Z,24.60
2023-03-31T06:19:00.211Z,24.64
2023-03-31T06:20:00.210Z,24.58
2023-03-31T06:21:00.228Z,24.60
2023-03-31T06:22:00.228Z,24.61
2023-03-31T06:23:00.419Z,24.65
2023-03-31T06:24:00.266Z,24.64
2023-03-31T06:25:00.278Z,24.65
2023-03-31T06:26:00.257Z,24.62
2023-03-31T06:27:00.266Z,24.64
2023-03-31T06:28:00.271Z,24.65
2023-03-31T06:29:00.275Z,24.64
2023-03-31T06:30:00.279Z,24.64
2023-03-31T06:31:00.283Z,24.65
2023-03-31T06:32:00.314Z,24.68
2023-03-31T06:33:00.342Z,24.67
2023-03-31T06:34:00.315Z,24.68
2023-03-31T06:35:00.317Z,24.68
2023-03-31T06:36:00.333Z,24.69
2023-03-31T06:37:00.337Z,24.71
2023-03-31T06:38:00.433Z,24.69
2023-03-31T06:39:00.353Z,24.72
2023-03-31T06:40:00.372Z,24.71
2023-03-31T06:41:00.364Z,24.69
2023-03-31T06:42:00.382Z,24.71
2023-03-31T06:43:00.418Z,24.69
2023-03-31T06:44:00.422Z,24.71
2023-03-31T06:45:00.431Z,24.71
2023-03-31T06:46:00.475Z,24.72
2023-03-31T06:47:00.460Z,24.71
2023-03-31T06:48:00.524Z,24.75
2023-03-31T06:49:00.480Z,24.76
2023-03-31T06:50:00.504Z,24.78
2023-03-31T06:51:00.508Z,24.76
2023-03-31T06:52:00.523Z,24.79
2023-03-31T06:53:00.530Z,24.78
2023-03-31T06:54:00.553Z,24.78
2023-03-31T06:55:00.567Z,24.79
2023-03-31T06:56:00.584Z,24.78
2023-03-31T06:57:00.620Z,24.75
2023-03-31T06:58:00.650Z,24.76
2023-03-31T06:59:00.643Z,24.78
2023-03-31T07:00:00.660Z,24.75
2023-03-31T07:01:00.684Z,24.75
2023-03-31T07:02:00.716Z,24.75
2023-03-31T07:03:00.804Z,24.72
2023-03-31T07:04:00.733Z,24.72
2023-03-31T07:05:00.775Z,24.75
2023-03-31T07:06:01.057Z,24.74
2023-03-31T07:07:00.776Z,24.72
2023-03-31T07:08:00.798Z,24.72
2023-03-31T07:09:00.831Z,24.71
2023-03-31T07:10:01.544Z,24.72
2023-03-31T07:11:00.874Z,24.71
2023-03-31T07:12:00.875Z,24.72
2023-03-31T07:13:01.633Z,24.72
2023-03-31T07:14:00.918Z,24.68
2023-03-31T07:15:01.131Z,24.69
2023-03-31T07:16:01.015Z,24.69
2023-03-31T07:17:00.976Z,24.68
2023-03-31T07:18:01.038Z,24.68
2023-03-31T07:19:01.006Z,24.68
2023-03-31T07:20:01.029Z,24.68
2023-03-31T07:21:01.056Z,24.65
2023-03-31T07:22:01.101Z,24.67
2023-03-31T07:23:01.091Z,24.67
2023-03-31T07:24:01.118Z,24.65
2023-03-31T07:25:01.163Z,24.65
2023-03-31T07:26:01.158Z,24.65
2023-03-31T07:27:01.177Z,24.67
2023-03-31T07:28:01.201Z,24.62
2023-03-31T07:29:01.249Z,24.64
2023-03-31T07:30:01.331Z,24.64
2023-03-31T07:31:01.282Z,24.65
2023-03-31T07:32:01.345Z,24.64
2023-03-31T07:33:01.390Z,24.64
2023-03-31T07:34:01.362Z,24.64
2023-03-31T07:35:01.380Z,24.62
2023-03-31T07:36:11.910Z,24.61
2023-03-31T07:37:02.376Z,24.61
2023-03-31T07:38:01.366Z,24.62
2023-03-31T07:39:01.336Z,24.61
2023-03-31T07:40:01.310Z,24.61
2023-03-31T07:41:08.216Z,24.61
2023-03-31T07:42:02.243Z,24.61
2023-03-31T07:43:01.215Z,24.60
2023-03-31T07:44:01.201Z,24.61
2023-03-31T07:45:01.186Z,24.60
2023-03-31T07:46:02.161Z,24.60
2023-03-31T07:47:01.122Z,24.61
2023-03-31T07:48:01.154Z,24.61
2023-03-31T07:49:01.082Z,24.61
2023-03-31T07:50:01.084Z,24.62
2023-03-31T07:51:01.048Z,24.60
2023-03-31T07:52:01.026Z,24.61
2023-03-31T07:53:01.031Z,24.60
2023-03-31T07:54:01.054Z,24.61
2023-03-31T07:55:01.075Z,24.61
2023-03-31T07:56:01.100Z,24.62
2023-03-31T07:57:01.188Z,24.61
2023-03-31T07:58:01.170Z,24.58
2023-03-31T07:59:01.192Z,24.62
2023-03-31T08:00:01.246Z,24.61
2023-03-31T08:01:01.234Z,24.61
2023-03-31T08:02:01.326Z,24.58
2023-03-31T08:03:01.317Z,24.58
2023-03-31T08:04:01.361Z,24.60
2023-03-31T08:05:01.338Z,24.61
2023-03-31T08:06:01.372Z,24.61
2023-03-31T08:07:01.385Z,24.60
2023-03-31T08:08:02.062Z,24.61
2023-03-31T08:09:01.437Z,24.62
2023-03-31T08:10:01.488Z,24.60
2023-03-31T08:11:01.532Z,24.57
2023-03-31T08:12:01.520Z,24.55
2023-03-31T08:13:01.602Z,24.54
2023-03-31T08:14:01.585Z,24.57
2023-03-31T08:15:01.591Z,24.60
2023-03-31T08:16:01.696Z,24.60
2023-03-31T08:17:01.651Z,24.58
2023-03-31T08:18:01.730Z,24.58
2023-03-31T08:19:01.682Z,24.60
2023-03-31T08:20:05.330Z,24.60
2023-03-31T08:21:02.661Z,24.60
2023-03-31T08:22:01.618Z,24.62
2023-03-31T08:23:01.605Z,24.62
2023-03-31T08:24:01.565Z,24.61
2023-03-31T08:25:01.548Z,24.65
2023-03-31T08:26:01.497Z,24.64
2023-03-31T08:27:01.478Z,24.64
2023-03-31T08:28:01.449Z,24.62
2023-03-31T08:29:01.430Z,24.62
2023-03-31T08:30:01.472Z,24.64
2023-03-31T08:31:01.375Z,24.62
2023-03-31T08:32:01.467Z,24.65
2023-03-31T08:33:01.442Z,24.64
2023-03-31T08:34:01.450Z,24.65
2023-03-31T08:35:01.471Z,24.65
2023-03-31T08:36:01.483Z,24.65
2023-03-31T08:37:01.468Z,24.67
2023-03-31T08:38:01.488Z,24.71
2023-03-31T08:39:03.062Z,24.72
2023-03-31T08:40:01.515Z,24.69
2023-03-31T08:41:01.597Z,24.68
2023-03-31T08:42:01.524Z,24.71
2023-03-31T08:43:01.522Z,24.74
2023-03-31T08:44:01.535Z,24.72
2023-03-31T08:45:02.064Z,24.74
2023-03-31T08:46:01.582Z,24.76
2023-03-31T08:47:01.557Z,24.75
2023-03-31T08:48:01.572Z,24.74
2023-03-31T08:49:01.589Z,24.74
2023-03-31T08:50:01.566Z,24.74
2023-03-31T08:51:01.567Z,24.75
2023-03-31T08:52:01.575Z,24.76
2023-03-31T08:53:01.573Z,24.76
2023-03-31T08:54:01.575Z,24.78
2023-03-31T08:55:01.559Z,24.79
2023-03-31T08:56:01.577Z,24.79
2023-03-31T08:57:01.550Z,24.82
2023-03-31T08:58:01.539Z,24.81
2023-03-31T08:59:02.176Z,24.85
2023-03-31T09:00:01.523Z,24.86
2023-03-31T09:01:01.571Z,24.83
2023-03-31T09:02:01.642Z,24.86
2023-03-31T09:03:03.705Z,24.90
2023-03-31T09:04:03.663Z,24.89
2023-03-31T09:05:01.423Z,24.92
2023-03-31T09:06:01.380Z,24.93
2023-03-31T09:07:01.367Z,24.93
2023-03-31T09:08:01.310Z,24.95
2023-03-31T09:09:01.273Z,24.99
2023-03-31T09:10:01.270Z,24.97
2023-03-31T09:11:01.207Z,24.99
2023-03-31T09:12:01.172Z,24.97
2023-03-31T09:13:01.173Z,24.99
2023-03-31T09:14:01.111Z,25.00
2023-03-31T09:15:01.181Z,25.02
2023-03-31T09:16:01.051Z,25.03
2023-03-31T09:17:01.101Z,25.06
2023-03-31T09:18:01.028Z,25.07
2023-03-31T09:19:00.958Z,25.09
2023-03-31T09:20:00.928Z,25.11
2023-03-31T09:21:00.876Z,25.14
2023-03-31T09:22:00.848Z,25.16
2023-03-31T09:23:00.826Z,25.17
2023-03-31T09:24:00.799Z,25.19
2023-03-31T09:25:00.757Z,25.17
2023-03-31T09:26:01.591Z,25.16
2023-03-31T09:27:00.709Z,25.16
2023-03-31T09:28:00.688Z,25.20
2023-03-31T09:29:00.667Z,25.19
2023-03-31T09:30:00.612Z,25.17
2023-03-31T09:31:00.570Z,25.17
2023-03-31T09:32:00.615Z,25.17
2023-03-31T09:33:00.564Z,25.16
2023-03-31T09:34:00.493Z,25.16
2023-03-31T09:35:00.436Z,25.17
2023-03-31T09:36:00.434Z,25.14
2023-03-31T09:37:01.091Z,25.14
2023-03-31T09:38:00.349Z,25.13
2023-03-31T09:39:00.278Z,25.13
2023-03-31T09:40:00.263Z,25.13
2023-03-31T09:41:00.267Z,25.11
2023-03-31T09:42:00.185Z,25.09
2023-03-31T09:43:00.199Z,25.10
2023-03-31T09:44:00.149Z,25.09
2023-03-31T09:45:00.135Z,25.07
2023-03-31T09:46:08.578Z,25.06
2023-03-31T09:47:01.122Z,25.07
2023-03-31T09:48:00.053Z,25.07
2023-03-31T09:48:59.976Z,25.07
2023-03-31T09:49:59.951Z,25.07
2023-03-31T09:50:59.911Z,25.07
2023-03-31T09:51:59.879Z,25.03
2023-03-31T09:53:00.625Z,25.02
2023-03-31T09:53:59.825Z,25.03
2023-03-31T09:54:59.784Z,25.02
2023-03-31T09:55:59.748Z,25.03
2023-03-31T09:56:59.739Z,25.02
2023-03-31T09:57:59.694Z,25.03
2023-03-31T09:58:59.657Z,25.02
2023-03-31T09:59:59.624Z,25.02
2023-03-31T10:00:59.614Z,25.00
2023-03-31T10:01:59.687Z,25.00
2023-03-31T10:02:59.655Z,25.00
2023-03-31T10:03:59.656Z,25.00
2023-03-31T10:05:00.206Z,24.96
2023-03-31T10:05:59.674Z,24.99
2023-03-31T10:06:59.678Z,24.97
2023-03-31T10:07:59.685Z,24.96
2023-03-31T10:08:59.711Z,24.96
2023-03-31T10:09:59.703Z,24.96
2023-03-31T10:10:59.717Z,24.95
2023-03-31T10:11:59.748Z,24.95
2023-03-31T10:12:59.747Z,24.93
2023-03-31T10:13:59.756Z,24.93
2023-03-31T10:14:59.771Z,24.90
2023-03-31T10:15:59.794Z,24.90
2023-03-31T10:16:59.795Z,24.89
2023-03-31T10:17:59.868Z,24.89
2023-03-31T10:18:59.822Z,24.87
2023-03-31T10:19:59.840Z,24.89
2023-03-31T10:20:59.854Z,24.87
2023-03-31T10:21:59.858Z,24.89
2023-03-31T10:22:59.866Z,24.93
2023-03-31T10:23:59.878Z,24.92
2023-03-31T10:24:59.912Z,24.96
2023-03-31T10:25:59.906Z,24.93
2023-03-31T10:26:59.919Z,24.96
2023-03-31T10:27:59.947Z,25.00
2023-03-31T10:28:59.951Z,25.00
2023-03-31T10:29:59.950Z,25.00
2023-03-31T10:30:59.974Z,25.03
2023-03-31T10:31:59.978Z,25.05
2023-03-31T10:33:05.659Z,25.09
2023-03-31T10:34:00.913Z,25.07
2023-03-31T10:34:59.885Z,25.09
2023-03-31T10:35:59.897Z,25.10
2023-03-31T10:36:59.823Z,25.10
2023-03-31T10:37:59.776Z,25.11
2023-03-31T10:38:59.808Z,25.14
2023-03-31T10:39:59.725Z,25.11
2023-03-31T10:40:59.753Z,25.14
2023-03-31T10:41:59.628Z,25.14
2023-03-31T10:42:59.595Z,25.17
2023-03-31T10:43:59.586Z,25.17
2023-03-31T10:44:59.517Z,25.16
2023-03-31T10:45:59.501Z,25.19
2023-03-31T10:46:59.483Z,25.20
2023-03-31T10:47:59.438Z,25.17
2023-03-31T10:48:59.371Z,25.19
2023-03-31T10:49:59.333Z,25.21
2023-03-31T10:50:59.296Z,25.23
2023-03-31T10:51:59.301Z,25.20
2023-03-31T10:52:59.236Z,25.20
2023-03-31T10:53:59.217Z,25.21
2023-03-31T10:54:59.209Z,25.23
2023-03-31T10:55:59.214Z,25.23
2023-03-31T10:56:59.216Z,25.26
2023-03-31T10:57:59.170Z,25.27
2023-03-31T10:59:05.155Z,25.24
2023-03-31T11:00:00.134Z,25.26
2023-03-31T11:00:59.089Z,25.27
2023-03-31T11:02:00.526Z,25.28
2023-03-31T11:02:59.156Z,25.31
2023-03-31T11:03:59.055Z,25.31
2023-03-31T11:04:58.917Z,25.33
2023-03-31T11:05:58.887Z,25.34
2023-03-31T11:06:58.833Z,25.31
2023-03-31T11:07:58.798Z,25.34
2023-03-31T11:08:58.741Z,25.36
2023-03-31T11:09:58.735Z,25.37
2023-03-31T11:10:58.713Z,25.34
2023-03-31T11:11:58.643Z,25.36
2023-03-31T11:12:58.605Z,25.31
2023-03-31T11:13:58.564Z,25.31
2023-03-31T11:14:58.542Z,25.34
2023-03-31T11:15:58.535Z,25.33
2023-03-31T11:16:58.510Z,25.30
2023-03-31T11:17:58.434Z,25.30
2023-03-31T11:18:58.422Z,25.27
2023-03-31T11:19:58.417Z,25.28
2023-03-31T11:20:58.437Z,25.26
2023-03-31T11:21:58.437Z,25.24
2023-03-31T11:22:58.441Z,25.26
2023-03-31T11:23:58.436Z,25.23
2023-03-31T11:24:58.439Z,25.23
2023-03-31T11:25:58.441Z,25.20
2023-03-31T11:26:58.451Z,25.21
2023-03-31T11:27:58.450Z,25.20
2023-03-31T11:28:58.471Z,25.17
2023-03-31T11:29:58.462Z,25.14
2023-03-31T11:30:58.467Z,25.13
2023-03-31T11:31:58.521Z,25.14
2023-03-31T11:32:58.534Z,25.14
2023-03-31T11:33:58.497Z,25.16
2023-03-31T11:34:58.502Z,25.14
2023-03-31T11:35:58.555Z,25.11
2023-03-31T11:36:58.518Z,25.11
2023-03-31T11:37:58.531Z,25.09
2023-03-31T11:38:58.533Z,25.09
2023-03-31T11:39:58.549Z,25.07
2023-03-31T11:40:58.567Z,25.07
2023-03-31T11:41:58.572Z,25.06
2023-03-31T11:42:58.600Z,25.06
2023-03-31T11:43:58.591Z,25.05
2023-03-31T11:44:58.599Z,25.02
2023-03-31T11:45:58.640Z,25.00
2023-03-31T11:46:58.627Z,25.00
2023-03-31T11:47:58.691Z,24.99
2023-03-31T11:48:58.641Z,24.97
2023-03-31T11:49:58.653Z,24.97
2023-03-31T11:50:58.657Z,24.96
2023-03-31T11:51:58.687Z,24.95
2023-03-31T11:52:58.681Z,24.93
2023-03-31T11:53:58.706Z,24.93
2023-03-31T11:54:59.771Z,24.92
2023-03-31T11:55:58.682Z,24.90
2023-03-31T11:56:58.697Z,24.92
2023-03-31T11:57:58.632Z,24.90
2023-03-31T11:58:58.618Z,24.90
2023-03-31T11:59:58.573Z,24.90
2023-03-31T12:00:59.065Z,24.89
2023-03-31T12:01:58.529Z,24.92
2023-03-31T12:02:58.527Z,24.89
2023-03-31T12:03:58.532Z,24.90
2023-03-31T12:04:58.426Z,24.89
2023-03-31T12:05:58.425Z,24.90
2023-03-31T12:06:59.307Z,24.89
2023-03-31T12:07:58.404Z,24.87
2023-03-31T12:08:58.267Z,24.86
2023-03-31T12:09:58.223Z,24.87
2023-03-31T12:10:58.180Z,24.87
2023-03-31T12:11:58.140Z,24.86
2023-03-31T12:12:58.098Z,24.85
2023-03-31T12:13:58.063Z,24.86
2023-03-31T12:14:58.033Z,24.86
2023-03-31T12:15:58.042Z,24.86
2023-03-31T12:16:57.966Z,24.85
2023-03-31T12:17:58.029Z,24.83
2023-03-31T12:18:57.900Z,24.83
2023-03-31T12:19:57.875Z,24.83
2023-03-31T12:20:57.870Z,24.82
2023-03-31T12:21:57.892Z,24.82
2023-03-31T12:22:57.897Z,24.82
2023-03-31T12:23:57.916Z,24.82
2023-03-31T12:24:57.929Z,24.79
2023-03-31T12:25:57.956Z,24.79
2023-03-31T12:26:57.977Z,24.81
2023-03-31T12:27:57.983Z,24.81
2023-03-31T12:28:58.039Z,24.79
2023-03-31T12:29:58.015Z,24.79
2023-03-31T12:30:58.105Z,24.78
2023-03-31T12:31:58.060Z,24.76
2023-03-31T12:32:58.086Z,24.76
2023-03-31T12:33:58.093Z,24.76
2023-03-31T12:34:58.120Z,24.76
2023-03-31T12:35:58.194Z,24.74
2023-03-31T12:36:58.149Z,24.75
2023-03-31T12:37:58.163Z,24.74
2023-03-31T12:38:58.183Z,24.74
2023-03-31T12:39:58.208Z,24.72
2023-03-31T12:40:58.215Z,24.72
2023-03-31T12:41:58.243Z,24.74
2023-03-31T12:42:58.253Z,24.68
2023-03-31T12:43:58.270Z,24.72
2023-03-31T12:44:58.301Z,24.71
2023-03-31T12:45:58.343Z,24.71
2023-03-31T12:46:58.394Z,24.69
2023-03-31T12:47:58.422Z,24.69
2023-03-31T12:48:58.398Z,24.69
2023-03-31T12:49:58.448Z,24.69
2023-03-31T12:50:58.438Z,24.71
2023-03-31T12:51:58.470Z,24.68
2023-03-31T12:52:58.499Z,24.68